California Correctional Inst, California
Current Conditions -  °F | °C
As of 7:35 AM on Thursday 30 Oct 2014 (Local Time) from KTSP Reporting Station
Clear Clear  
Wind Chill: 44°   Ceiling: Unl
Heat Index: 48°   Visibility: 10mi
Dew Point: 19°   Wind: 10mph
Humidity: 32%   Direction: 130°SE
Pressure: 30.12"   Gusts: NA
Location:  35.1338°N, 118.552°W
Report Text: KTSP 301435Z AUTO 13009KT 10SM CLR 09/M07 A3012 RMK AO2
Loading
Personal Weather Stations






























Interactive Weather Map
Tropical Storm Tracking
New forecast layout! Learn more

10-Day Weather Forecast

Advertisements
Track Severe Weather on mobile